createdAt,value
2017-10-01T00:00:09.045Z,1012.39
2017-10-01T00:01:19.294Z,1012.36
2017-10-01T00:02:29.565Z,1012.37
2017-10-01T00:03:39.811Z,1012.36
2017-10-01T00:04:50.064Z,1012.35
2017-10-01T00:06:00.308Z,1012.31
2017-10-01T00:07:10.563Z,1012.33
2017-10-01T00:08:20.499Z,1012.29
2017-10-01T00:09:30.744Z,1012.3
2017-10-01T00:10:41.010Z,1012.27
2017-10-01T00:11:50.961Z,1012.29
2017-10-01T00:13:00.577Z,1012.28
2017-10-01T00:14:10.841Z,1012.26
2017-10-01T00:15:21.094Z,1012.3
2017-10-01T00:16:31.339Z,1012.27
2017-10-01T00:17:41.582Z,1012.28
2017-10-01T00:18:51.854Z,1012.28
2017-10-01T00:20:01.806Z,1012.27
2017-10-01T00:21:12.041Z,1012.3
2017-10-01T00:22:21.986Z,1012.27
2017-10-01T00:23:31.929Z,1012.31
2017-10-01T00:24:42.189Z,1012.32
2017-10-01T00:25:52.136Z,1012.3
2017-10-01T00:27:02.379Z,1012.32
2017-10-01T00:28:12.331Z,1012.35
2017-10-01T00:29:22.259Z,1012.37
2017-10-01T00:30:32.506Z,1012.36
2017-10-01T00:31:42.439Z,1012.35
2017-10-01T00:32:52.376Z,1012.35
2017-10-01T00:34:02.307Z,1012.33
2017-10-01T00:35:12.563Z,1012.38
2017-10-01T00:36:22.503Z,1012.38
2017-10-01T00:37:32.423Z,1012.33
2017-10-01T00:38:42.671Z,1012.31
2017-10-01T00:39:52.915Z,1012.35
2017-10-01T00:41:03.195Z,1012.28
2017-10-01T00:42:13.130Z,1012.26
2017-10-01T00:43:23.384Z,1012.26
2017-10-01T00:44:33.631Z,1012.26
2017-10-01T00:45:43.892Z,1012.26
2017-10-01T00:46:53.520Z,1012.24
2017-10-01T00:48:03.767Z,1012.27
2017-10-01T00:49:13.696Z,1012.26
2017-10-01T00:50:23.937Z,1012.27
2017-10-01T00:51:33.871Z,1012.24
2017-10-01T00:52:44.132Z,1012.24
2017-10-01T00:53:54.072Z,1012.26
2017-10-01T00:55:04.007Z,1012.28
2017-10-01T00:56:13.940Z,1012.24
2017-10-01T00:57:24.188Z,1012.25
2017-10-01T00:58:34.451Z,1012.24
2017-10-01T00:59:44.382Z,1012.25
2017-10-01T01:00:54.634Z,1012.24
2017-10-01T01:02:05.027Z,1012.31
2017-10-01T01:03:14.958Z,1012.31
2017-10-01T01:04:25.028Z,1012.31
2017-10-01T01:05:35.274Z,1012.32
2017-10-01T01:06:45.539Z,1012.29
2017-10-01T01:07:55.473Z,1012.31
2017-10-01T01:09:05.723Z,1012.33
2017-10-01T01:10:15.972Z,1012.35
2017-10-01T01:11:25.898Z,1012.38
2017-10-01T01:12:36.149Z,1012.35
2017-10-01T01:13:46.404Z,1012.37
2017-10-01T01:14:56.651Z,1012.39
2017-10-01T01:16:06.594Z,1012.38
2017-10-01T01:17:16.838Z,1012.36
2017-10-01T01:18:26.771Z,1012.39
2017-10-01T01:19:37.018Z,1012.4
2017-10-01T01:20:46.952Z,1012.35
2017-10-01T01:21:57.223Z,1012.39
2017-10-01T01:23:07.477Z,1012.4
2017-10-01T01:24:17.731Z,1012.41
2017-10-01T01:25:27.664Z,1012.4
2017-10-01T01:26:37.599Z,1012.36
2017-10-01T01:27:47.848Z,1012.37
2017-10-01T01:28:58.089Z,1012.41
2017-10-01T01:30:08.034Z,1012.39
2017-10-01T01:31:17.964Z,1012.39
2017-10-01T01:32:27.589Z,1012.38
2017-10-01T01:33:37.849Z,1012.41
2017-10-01T01:34:47.467Z,1012.37
2017-10-01T01:35:57.713Z,1012.39
2017-10-01T01:37:07.976Z,1012.43
2017-10-01T01:38:17.919Z,1012.39
2017-10-01T01:39:28.196Z,1012.44
2017-10-01T01:40:38.449Z,1012.48
2017-10-01T01:41:48.708Z,1012.48
2017-10-01T01:42:58.960Z,1012.45
2017-10-01T01:44:09.205Z,1012.51
2017-10-01T01:45:19.144Z,1012.48
2017-10-01T01:46:29.405Z,1012.51
2017-10-01T01:47:39.651Z,1012.51
2017-10-01T01:48:49.581Z,1012.49
2017-10-01T01:49:59.198Z,1012.51
2017-10-01T01:51:09.444Z,1012.52
2017-10-01T01:52:19.375Z,1012.54
2017-10-01T01:53:29.316Z,1012.54
2017-10-01T01:54:39.265Z,1012.56
2017-10-01T01:55:48.885Z,1012.57
2017-10-01T01:56:59.131Z,1012.58
2017-10-01T01:58:09.054Z,1012.62
2017-10-01T01:59:19.292Z,1012.6
2017-10-01T02:00:29.225Z,1012.6
2017-10-01T02:01:39.484Z,1012.61
2017-10-01T02:02:49.727Z,1012.63
2017-10-01T02:03:59.979Z,1012.61
2017-10-01T02:05:09.919Z,1012.61
2017-10-01T02:06:19.858Z,1012.63
2017-10-01T02:07:30.102Z,1012.63
2017-10-01T02:08:40.351Z,1012.63
2017-10-01T02:09:50.302Z,1012.66
2017-10-01T02:11:00.538Z,1012.7
2017-10-01T02:12:10.464Z,1012.65
2017-10-01T02:13:20.724Z,1012.67
2017-10-01T02:14:30.665Z,1012.67
2017-10-01T02:15:40.910Z,1012.7
2017-10-01T02:16:51.150Z,1012.71
2017-10-01T02:18:01.099Z,1012.71
2017-10-01T02:19:11.348Z,1012.68
2017-10-01T02:20:21.284Z,1012.67
2017-10-01T02:21:31.536Z,1012.73
2017-10-01T02:22:41.483Z,1012.73
2017-10-01T02:23:51.732Z,1012.73
2017-10-01T02:25:01.986Z,1012.7
2017-10-01T02:26:11.607Z,1012.69
2017-10-01T02:27:21.853Z,1012.7
2017-10-01T02:28:32.129Z,1012.69
2017-10-01T02:29:42.069Z,1012.68
2017-10-01T02:30:51.996Z,1012.66
2017-10-01T02:32:02.262Z,1012.69
2017-10-01T02:33:12.509Z,1012.7
2017-10-01T02:34:22.755Z,1012.68
2017-10-01T02:35:32.688Z,1012.7
2017-10-01T02:36:42.955Z,1012.76
2017-10-01T02:37:53.232Z,1012.78
2017-10-01T02:39:03.476Z,1012.77
2017-10-01T02:40:13.728Z,1012.8
2017-10-01T02:41:23.346Z,1012.77
2017-10-01T02:42:33.595Z,1012.78
2017-10-01T02:43:43.536Z,1012.85
2017-10-01T02:44:53.488Z,1012.84
2017-10-01T02:46:03.730Z,1012.89
2017-10-01T02:47:13.997Z,1012.86
2017-10-01T02:48:23.939Z,1012.89
2017-10-01T02:49:34.193Z,1012.92
2017-10-01T02:50:44.126Z,1012.92
2017-10-01T02:51:53.751Z,1012.92
2017-10-01T02:53:04.026Z,1012.93
2017-10-01T02:54:14.277Z,1012.91
2017-10-01T02:55:24.215Z,1012.88
2017-10-01T02:56:34.149Z,1012.87
2017-10-01T02:57:44.083Z,1012.89
2017-10-01T02:58:54.027Z,1012.88
2017-10-01T03:00:04.277Z,1012.93
2017-10-01T03:01:14.519Z,1012.89
2017-10-01T03:02:24.763Z,1012.92
2017-10-01T03:03:35.013Z,1012.92
2017-10-01T03:04:45.278Z,1012.95
2017-10-01T03:05:55.541Z,1012.94
2017-10-01T03:07:05.792Z,1012.95
2017-10-01T03:08:16.046Z,1012.93
2017-10-01T03:09:25.976Z,1012.95
2017-10-01T03:10:36.226Z,1012.93
2017-10-01T03:11:46.164Z,1012.95
2017-10-01T03:12:56.095Z,1012.93
2017-10-01T03:14:06.035Z,1012.93
2017-10-01T03:15:16.279Z,1012.94
2017-10-01T03:16:26.222Z,1012.95
2017-10-01T03:17:36.150Z,1012.96
2017-10-01T03:18:46.080Z,1012.98
2017-10-01T03:19:56.024Z,1013
2017-10-01T03:21:05.964Z,1013.04
2017-10-01T03:22:15.897Z,1013.04
2017-10-01T03:23:26.141Z,1013.03
2017-10-01T03:24:36.385Z,1013.08
2017-10-01T03:25:46.315Z,1013.07
2017-10-01T03:26:56.562Z,1013.08
2017-10-01T03:28:06.806Z,1013.08
2017-10-01T03:29:17.056Z,1013.15
2017-10-01T03:30:27.304Z,1013.13
2017-10-01T03:31:37.240Z,1013.14
2017-10-01T03:32:47.488Z,1013.14
2017-10-01T03:33:57.723Z,1013.14
2017-10-01T03:35:07.966Z,1013.14
2017-10-01T03:36:18.211Z,1013.15
2017-10-01T03:37:28.142Z,1013.18
2017-10-01T03:38:38.075Z,1013.15
2017-10-01T03:39:48.007Z,1013.16
2017-10-01T03:40:57.933Z,1013.19
2017-10-01T03:42:08.178Z,1013.19
2017-10-01T03:43:18.425Z,1013.22
2017-10-01T03:44:28.675Z,1013.28
2017-10-01T03:45:38.619Z,1013.23
2017-10-01T03:46:48.541Z,1013.26
2017-10-01T03:47:58.483Z,1013.26
2017-10-01T03:49:08.413Z,1013.27
2017-10-01T03:50:18.662Z,1013.24
2017-10-01T03:51:28.910Z,1013.26
2017-10-01T03:52:39.160Z,1013.24
2017-10-01T03:53:49.103Z,1013.26
2017-10-01T03:54:59.349Z,1013.27
2017-10-01T03:56:09.608Z,1013.28
2017-10-01T03:57:19.880Z,1013.27
2017-10-01T03:58:29.493Z,1013.25
2017-10-01T03:59:39.738Z,1013.26
2017-10-01T04:00:49.671Z,1013.28
2017-10-01T04:01:59.918Z,1013.26
2017-10-01T04:03:09.532Z,1013.28
2017-10-01T04:04:19.470Z,1013.2
2017-10-01T04:05:29.404Z,1013.24
2017-10-01T04:06:39.028Z,1013.23
2017-10-01T04:07:49.286Z,1013.28
2017-10-01T04:08:59.537Z,1013.29
2017-10-01T04:10:09.780Z,1013.27
2017-10-01T04:11:19.723Z,1013.28
2017-10-01T04:12:28.708Z,1013.29
2017-10-01T04:13:38.967Z,1013.28
2017-10-01T04:14:49.214Z,1013.27
2017-10-01T04:15:59.160Z,1013.29
2017-10-01T04:17:09.428Z,1013.32
2017-10-01T04:18:19.384Z,1013.32
2017-10-01T04:19:29.646Z,1013.36
2017-10-01T04:20:39.886Z,1013.36
2017-10-01T04:21:50.167Z,1013.42
2017-10-01T04:23:00.414Z,1013.38
2017-10-01T04:24:10.677Z,1013.36
2017-10-01T04:25:20.305Z,1013.39
2017-10-01T04:26:30.551Z,1013.39
2017-10-01T04:27:40.789Z,1013.41
2017-10-01T04:28:51.036Z,1013.41
2017-10-01T04:30:01.279Z,1013.42
2017-10-01T04:31:11.530Z,1013.39
2017-10-01T04:32:21.784Z,1013.43
2017-10-01T04:33:31.723Z,1013.43
2017-10-01T04:34:41.975Z,1013.47
2017-10-01T04:35:52.212Z,1013.48
2017-10-01T04:37:02.459Z,1013.48
2017-10-01T04:38:12.706Z,1013.47
2017-10-01T04:39:22.963Z,1013.51
2017-10-01T04:40:33.232Z,1013.49
2017-10-01T04:41:43.489Z,1013.51
2017-10-01T04:42:53.415Z,1013.47
2017-10-01T04:44:03.664Z,1013.49
2017-10-01T04:45:13.593Z,1013.46
2017-10-01T04:46:23.524Z,1013.52
2017-10-01T04:47:33.459Z,1013.5
2017-10-01T04:48:43.700Z,1013.52
2017-10-01T04:49:53.642Z,1013.55
2017-10-01T04:51:03.584Z,1013.56
2017-10-01T04:52:13.839Z,1013.63
2017-10-01T04:53:23.771Z,1013.62
2017-10-01T04:54:34.017Z,1013.62
2017-10-01T04:55:44.266Z,1013.64
2017-10-01T04:56:54.503Z,1013.64
2017-10-01T04:58:04.127Z,1013.69
2017-10-01T04:59:14.369Z,1013.66
2017-10-01T05:00:24.631Z,1013.68
2017-10-01T05:01:34.907Z,1013.69
2017-10-01T05:02:45.160Z,1013.73
2017-10-01T05:03:55.611Z,1013.71
2017-10-01T05:05:05.882Z,1013.71
2017-10-01T05:06:15.808Z,1013.71
2017-10-01T05:07:26.051Z,1013.72
2017-10-01T05:08:36.311Z,1013.75
2017-10-01T05:09:46.245Z,1013.71
2017-10-01T05:10:56.172Z,1013.72
2017-10-01T05:12:06.102Z,1013.73
2017-10-01T05:13:16.057Z,1013.72
2017-10-01T05:14:25.984Z,1013.72
2017-10-01T05:15:35.910Z,1013.73
2017-10-01T05:16:46.150Z,1013.74
2017-10-01T05:17:56.090Z,1013.74
2017-10-01T05:19:06.588Z,1013.74
2017-10-01T05:20:16.516Z,1013.76
2017-10-01T05:21:26.762Z,1013.72
2017-10-01T05:22:36.385Z,1013.77
2017-10-01T05:23:46.308Z,1013.75
2017-10-01T05:24:56.235Z,1013.74
2017-10-01T05:26:06.198Z,1013.8
2017-10-01T05:27:16.446Z,1013.81
2017-10-01T05:28:26.689Z,1013.82
2017-10-01T05:29:36.957Z,1013.8
2017-10-01T05:30:46.897Z,1013.84
2017-10-01T05:31:57.139Z,1013.86
2017-10-01T05:33:07.387Z,1013.87
2017-10-01T05:34:17.632Z,1013.85
2017-10-01T05:35:27.559Z,1013.91
2017-10-01T05:36:37.489Z,1013.88
2017-10-01T05:37:47.743Z,1013.88
2017-10-01T05:38:57.983Z,1013.88
2017-10-01T05:40:07.922Z,1013.86
2017-10-01T05:41:18.169Z,1013.92
2017-10-01T05:42:28.414Z,1013.89
2017-10-01T05:43:38.668Z,1013.92
2017-10-01T05:44:48.929Z,1013.9
2017-10-01T05:45:58.550Z,1013.91
2017-10-01T05:47:08.472Z,1013.92
2017-10-01T05:48:18.716Z,1013.92
2017-10-01T05:49:28.966Z,1013.93
2017-10-01T05:50:39.206Z,1013.92
2017-10-01T05:51:49.457Z,1013.89
2017-10-01T05:52:59.700Z,1013.89
2017-10-01T05:54:09.944Z,1013.9
2017-10-01T05:55:20.188Z,1013.99
2017-10-01T05:56:30.115Z,1013.94
2017-10-01T05:57:40.365Z,1013.98
2017-10-01T05:58:50.285Z,1014.01
2017-10-01T06:00:00.230Z,1014.05
2017-10-01T06:01:10.498Z,1014.06
2017-10-01T06:02:20.745Z,1014.03
2017-10-01T06:03:30.999Z,1014.07
2017-10-01T06:04:41.242Z,1014.05
2017-10-01T06:05:51.499Z,1014.08
2017-10-01T06:07:01.747Z,1014.1
2017-10-01T06:08:11.989Z,1014.04
2017-10-01T06:09:21.919Z,1014.1
2017-10-01T06:10:32.173Z,1014.11
2017-10-01T06:11:42.420Z,1014.11
2017-10-01T06:12:52.665Z,1014.09
2017-10-01T06:14:02.917Z,1014.12
2017-10-01T06:15:13.195Z,1014.14
2017-10-01T06:16:23.456Z,1014.12
2017-10-01T06:17:33.701Z,1014.13
2017-10-01T06:18:43.952Z,1014.16
2017-10-01T06:19:53.876Z,1014.16
2017-10-01T06:21:03.809Z,1014.2
2017-10-01T06:22:13.740Z,1014.15
2017-10-01T06:23:23.978Z,1014.17
2017-10-01T06:24:33.945Z,1014.19
2017-10-01T06:25:44.208Z,1014.19
2017-10-01T06:26:54.142Z,1014.23
2017-10-01T06:28:04.391Z,1014.25
2017-10-01T06:29:14.639Z,1014.26
2017-10-01T06:30:24.884Z,1014.25
2017-10-01T06:31:34.818Z,1014.26
2017-10-01T06:32:45.058Z,1014.25
2017-10-01T06:33:55.308Z,1014.25
2017-10-01T06:35:04.972Z,1014.23
2017-10-01T06:36:15.232Z,1014.24
2017-10-01T06:37:25.493Z,1014.26
2017-10-01T06:38:35.426Z,1014.26
2017-10-01T06:39:45.681Z,1014.25
2017-10-01T06:40:55.608Z,1014.24
2017-10-01T06:42:05.859Z,1014.26
2017-10-01T06:43:16.109Z,1014.25
2017-10-01T06:44:26.349Z,1014.28
2017-10-01T06:45:36.298Z,1014.28
2017-10-01T06:46:46.228Z,1014.32
2017-10-01T06:47:56.472Z,1014.35
2017-10-01T06:49:06.405Z,1014.35
2017-10-01T06:50:16.656Z,1014.41
2017-10-01T06:51:26.589Z,1014.39
2017-10-01T06:52:36.842Z,1014.42
2017-10-01T06:53:47.082Z,1014.42
2017-10-01T06:54:57.342Z,1014.43
2017-10-01T06:56:07.593Z,1014.49
2017-10-01T06:57:17.847Z,1014.52
2017-10-01T06:58:28.084Z,1014.52
2017-10-01T06:59:38.333Z,1014.53
2017-10-01T07:00:48.589Z,1014.55
2017-10-01T07:01:58.841Z,1014.6
2017-10-01T07:03:08.465Z,1014.64
2017-10-01T07:04:18.395Z,1014.6
2017-10-01T07:05:28.660Z,1014.64
2017-10-01T07:06:38.590Z,1014.63
2017-10-01T07:07:48.844Z,1014.65
2017-10-01T07:08:58.773Z,1014.65
2017-10-01T07:10:09.021Z,1014.67
2017-10-01T07:11:18.643Z,1014.68
2017-10-01T07:12:28.905Z,1014.7
2017-10-01T07:13:39.152Z,1014.7
2017-10-01T07:14:49.396Z,1014.7
2017-10-01T07:15:59.680Z,1014.72
2017-10-01T07:17:09.616Z,1014.72
2017-10-01T07:18:20.674Z,1014.77
2017-10-01T07:19:30.923Z,1014.78
2017-10-01T07:20:41.188Z,1014.83
2017-10-01T07:21:51.140Z,1014.81
2017-10-01T07:23:01.401Z,1014.78
2017-10-01T07:24:11.662Z,1014.8
2017-10-01T07:25:21.303Z,1014.85
2017-10-01T07:26:31.232Z,1014.84
2017-10-01T07:27:41.487Z,1014.87
2017-10-01T07:28:51.734Z,1014.85
2017-10-01T07:30:01.986Z,1014.88
2017-10-01T07:31:12.239Z,1014.87
2017-10-01T07:32:22.490Z,1014.87
2017-10-01T07:33:32.742Z,1014.92
2017-10-01T07:34:42.674Z,1014.92
2017-10-01T07:35:52.930Z,1014.95
2017-10-01T07:37:02.546Z,1014.98
2017-10-01T07:38:12.799Z,1014.98
2017-10-01T07:39:23.042Z,1014.99
2017-10-01T07:40:32.984Z,1014.99
2017-10-01T07:41:42.913Z,1014.97
2017-10-01T07:42:52.877Z,1014.99
2017-10-01T07:44:02.811Z,1015.03
2017-10-01T07:45:13.091Z,1015.02
2017-10-01T07:46:23.032Z,1015.03
2017-10-01T07:47:33.293Z,1015.03
2017-10-01T07:48:43.539Z,1015.12
2017-10-01T07:49:53.484Z,1015.12
2017-10-01T07:51:03.749Z,1015.09
2017-10-01T07:52:13.997Z,1015.1
2017-10-01T07:53:24.247Z,1015.06
2017-10-01T07:54:34.503Z,1015.07
2017-10-01T07:55:44.752Z,1015.07
2017-10-01T07:56:55.003Z,1015.11
2017-10-01T07:58:04.951Z,1015.09
2017-10-01T07:59:15.232Z,1015.12
2017-10-01T08:00:25.165Z,1015.11
2017-10-01T08:01:35.427Z,1015.15
2017-10-01T08:02:45.045Z,1015.19
2017-10-01T08:03:55.318Z,1015.2
2017-10-01T08:05:05.596Z,1015.21
2017-10-01T08:06:15.839Z,1015.21
2017-10-01T08:07:25.775Z,1015.21
2017-10-01T08:08:36.021Z,1015.22
2017-10-01T08:09:45.956Z,1015.22
2017-10-01T08:10:55.885Z,1015.22
2017-10-01T08:12:06.137Z,1015.24
2017-10-01T08:13:16.395Z,1015.27
2017-10-01T08:14:26.649Z,1015.29
2017-10-01T08:15:36.903Z,1015.26
2017-10-01T08:16:46.528Z,1015.29
2017-10-01T08:17:56.465Z,1015.29
2017-10-01T08:19:06.726Z,1015.26
2017-10-01T08:20:16.975Z,1015.31
2017-10-01T08:21:27.231Z,1015.28
2017-10-01T08:22:36.854Z,1015.28
2017-10-01T08:23:47.110Z,1015.31
2017-10-01T08:24:57.364Z,1015.28
2017-10-01T08:26:07.619Z,1015.3
2017-10-01T08:27:17.873Z,1015.31
2017-10-01T08:28:28.119Z,1015.29
2017-10-01T08:29:38.050Z,1015.29
2017-10-01T08:30:48.304Z,1015.28
2017-10-01T08:31:58.555Z,1015.3
2017-10-01T08:33:08.799Z,1015.32
2017-10-01T08:34:18.738Z,1015.36
2017-10-01T08:35:28.992Z,1015.38
2017-10-01T08:36:38.935Z,1015.38
2017-10-01T08:37:49.176Z,1015.4
2017-10-01T08:38:59.425Z,1015.42
2017-10-01T08:40:09.687Z,1015.47
2017-10-01T08:41:19.954Z,1015.43
2017-10-01T08:42:30.205Z,1015.41
2017-10-01T08:43:40.140Z,1015.42
2017-10-01T08:44:50.385Z,1015.43
2017-10-01T08:46:00.644Z,1015.44
2017-10-01T08:47:10.277Z,1015.48
2017-10-01T08:48:20.541Z,1015.47
2017-10-01T08:49:30.490Z,1015.45
2017-10-01T08:50:40.748Z,1015.48
2017-10-01T08:51:50.373Z,1015.47
2017-10-01T08:53:00.298Z,1015.52
2017-10-01T08:54:09.920Z,1015.49
2017-10-01T08:55:20.205Z,1015.49
2017-10-01T08:56:30.458Z,1015.54
2017-10-01T08:57:40.723Z,1015.52
2017-10-01T08:58:50.336Z,1015.56
2017-10-01T09:00:00.605Z,1015.53
2017-10-01T09:01:10.864Z,1015.57
2017-10-01T09:02:21.114Z,1015.57
2017-10-01T09:03:31.388Z,1015.58
2017-10-01T09:04:41.650Z,1015.59
2017-10-01T09:05:51.581Z,1015.63
2017-10-01T09:07:01.826Z,1015.65
2017-10-01T09:08:12.089Z,1015.61
2017-10-01T09:09:22.029Z,1015.63
2017-10-01T09:10:32.296Z,1015.67
2017-10-01T09:11:42.555Z,1015.66
2017-10-01T09:12:52.806Z,1015.69
2017-10-01T09:14:02.757Z,1015.68
2017-10-01T09:15:13.004Z,1015.66
2017-10-01T09:16:22.947Z,1015.67
2017-10-01T09:17:33.197Z,1015.67
2017-10-01T09:18:43.133Z,1015.71
2017-10-01T09:19:53.400Z,1015.65
2017-10-01T09:21:03.881Z,1015.65
2017-10-01T09:22:14.131Z,1015.66
2017-10-01T09:23:24.391Z,1015.7
2017-10-01T09:24:34.327Z,1015.69
2017-10-01T09:25:44.588Z,1015.68
2017-10-01T09:26:54.850Z,1015.72
2017-10-01T09:28:04.789Z,1015.75
2017-10-01T09:29:15.044Z,1015.72
2017-10-01T09:30:25.294Z,1015.72
2017-10-01T09:31:35.245Z,1015.74
2017-10-01T09:32:45.519Z,1015.75
2017-10-01T09:33:55.477Z,1015.75
2017-10-01T09:35:05.736Z,1015.68
2017-10-01T09:36:15.662Z,1015.69
2017-10-01T09:37:25.283Z,1015.68
2017-10-01T09:38:35.540Z,1015.68
2017-10-01T09:39:45.789Z,1015.7
2017-10-01T09:40:56.038Z,1015.75
2017-10-01T09:42:06.292Z,1015.76
2017-10-01T09:43:16.554Z,1015.76
2017-10-01T09:44:26.833Z,1015.73
2017-10-01T09:45:37.098Z,1015.73
2017-10-01T09:46:47.353Z,1015.73
2017-10-01T09:47:57.611Z,1015.72
2017-10-01T09:49:07.863Z,1015.68
2017-10-01T09:50:17.487Z,1015.72
2017-10-01T09:51:27.435Z,1015.66
2017-10-01T09:52:37.370Z,1015.68
2017-10-01T09:53:47.615Z,1015.68
2017-10-01T09:54:57.867Z,1015.68
2017-10-01T09:56:08.134Z,1015.67
2017-10-01T09:57:18.067Z,1015.71
2017-10-01T09:58:28.313Z,1015.67
2017-10-01T09:59:38.566Z,1015.64
2017-10-01T10:00:48.847Z,1015.62
2017-10-01T10:01:58.794Z,1015.63
2017-10-01T10:03:09.046Z,1015.63
2017-10-01T10:04:19.292Z,1015.62
2017-10-01T10:05:29.550Z,1015.64
2017-10-01T10:06:39.800Z,1015.74
2017-10-01T10:07:50.056Z,1015.74
2017-10-01T10:08:59.996Z,1015.7
2017-10-01T10:10:10.250Z,1015.71
2017-10-01T10:11:20.500Z,1015.74
2017-10-01T10:12:30.763Z,1015.77
2017-10-01T10:13:41.013Z,1015.77
2017-10-01T10:14:51.279Z,1015.78
2017-10-01T10:16:01.534Z,1015.78
2017-10-01T10:17:11.788Z,1015.78
2017-10-01T10:18:22.064Z,1015.83
2017-10-01T10:19:32.325Z,1015.81
2017-10-01T10:20:42.569Z,1015.8
2017-10-01T10:21:51.871Z,1015.82
2017-10-01T10:23:02.127Z,1015.82
2017-10-01T10:24:12.073Z,1015.84
2017-10-01T10:25:22.335Z,1015.83
2017-10-01T10:26:32.267Z,1015.91
2017-10-01T10:27:42.516Z,1015.9
2017-10-01T10:28:52.448Z,1015.93
2017-10-01T10:30:02.715Z,1015.94
2017-10-01T10:31:12.660Z,1015.94
2017-10-01T10:32:22.938Z,1015.88
2017-10-01T10:33:32.882Z,1015.98
2017-10-01T10:34:42.827Z,1015.97
2017-10-01T10:35:53.089Z,1015.96
2017-10-01T10:37:03.026Z,1015.98
2017-10-01T10:38:13.293Z,1015.97
2017-10-01T10:39:23.231Z,1015.99
2017-10-01T10:40:33.481Z,1016.03
2017-10-01T10:41:43.749Z,1016.05
2017-10-01T10:42:54.021Z,1016.06
2017-10-01T10:44:03.639Z,1016.07
2017-10-01T10:45:13.894Z,1016.04
2017-10-01T10:46:24.162Z,1016.13
2017-10-01T10:47:34.097Z,1016.1
2017-10-01T10:48:43.088Z,1016.12
2017-10-01T10:49:53.355Z,1016.15
2017-10-01T10:51:03.619Z,1016.15
2017-10-01T10:52:13.873Z,1016.21
2017-10-01T10:53:23.818Z,1016.16
2017-10-01T10:54:34.079Z,1016.19
2017-10-01T10:55:44.025Z,1016.2
2017-10-01T10:56:53.996Z,1016.18
2017-10-01T10:58:04.275Z,1016.16
2017-10-01T10:59:14.523Z,1016.17
2017-10-01T11:00:24.772Z,1016.15
2017-10-01T11:01:34.706Z,1016.14
2017-10-01T11:02:44.967Z,1016.15
2017-10-01T11:03:54.904Z,1016.18
2017-10-01T11:05:05.157Z,1016.18
2017-10-01T11:06:15.118Z,1016.15
2017-10-01T11:07:25.407Z,1016.17
2017-10-01T11:08:35.665Z,1016.12
2017-10-01T11:09:45.914Z,1016.15
2017-10-01T11:10:55.858Z,1016.11
2017-10-01T11:12:06.109Z,1016.11
2017-10-01T11:13:16.360Z,1016.13
2017-10-01T11:14:26.296Z,1016.09
2017-10-01T11:15:36.559Z,1016.13
2017-10-01T11:16:46.811Z,1016.14
2017-10-01T11:17:57.066Z,1016.16
2017-10-01T11:19:07.325Z,1016.16
2017-10-01T11:20:17.265Z,1016.18
2017-10-01T11:21:27.212Z,1016.14
2017-10-01T11:22:37.157Z,1016.18
2017-10-01T11:23:47.115Z,1016.19
2017-10-01T11:24:57.370Z,1016.19
2017-10-01T11:26:07.639Z,1016.18
2017-10-01T11:27:17.896Z,1016.19
2017-10-01T11:28:28.154Z,1016.17
2017-10-01T11:29:38.408Z,1016.18
2017-10-01T11:30:48.358Z,1016.16
2017-10-01T11:31:58.303Z,1016.19
2017-10-01T11:33:08.251Z,1016.18
2017-10-01T11:34:18.516Z,1016.17
2017-10-01T11:35:28.768Z,1016.15
2017-10-01T11:36:38.399Z,1016.2
2017-10-01T11:37:48.418Z,1016.18
2017-10-01T11:38:58.369Z,1016.17
2017-10-01T11:40:08.631Z,1016.19
2017-10-01T11:41:18.897Z,1016.2
2017-10-01T11:42:29.164Z,1016.23
2017-10-01T11:43:39.105Z,1016.17
2017-10-01T11:44:49.346Z,1016.24
2017-10-01T11:45:59.589Z,1016.21
2017-10-01T11:47:09.838Z,1016.24
2017-10-01T11:48:20.173Z,1016.29
2017-10-01T11:49:30.115Z,1016.29
2017-10-01T11:50:40.369Z,1016.28
2017-10-01T11:51:50.314Z,1016.29
2017-10-01T11:53:00.579Z,1016.25
2017-10-01T11:54:10.831Z,1016.27
2017-10-01T11:55:20.791Z,1016.3
2017-10-01T11:56:31.060Z,1016.31
2017-10-01T11:57:41.317Z,1016.32
2017-10-01T11:58:51.560Z,1016.32
2017-10-01T12:00:01.667Z,1016.3
2017-10-01T12:01:11.307Z,1016.34
2017-10-01T12:02:21.557Z,1016.38
2017-10-01T12:03:31.179Z,1016.38
2017-10-01T12:04:41.148Z,1016.34
2017-10-01T12:05:51.412Z,1016.39
2017-10-01T12:07:01.666Z,1016.41
2017-10-01T12:08:11.911Z,1016.37
2017-10-01T12:09:21.553Z,1016.38
2017-10-01T12:10:31.836Z,1016.41
2017-10-01T12:11:41.790Z,1016.39
2017-10-01T12:12:51.738Z,1016.41
2017-10-01T12:14:01.997Z,1016.42
2017-10-01T12:15:12.249Z,1016.34
2017-10-01T12:16:22.509Z,1016.4
2017-10-01T12:17:32.447Z,1016.38
2017-10-01T12:18:42.081Z,1016.39
2017-10-01T12:19:52.324Z,1016.36
2017-10-01T12:21:02.578Z,1016.38
2017-10-01T12:22:12.834Z,1016.39
2017-10-01T12:23:22.787Z,1016.38
2017-10-01T12:24:33.036Z,1016.39
2017-10-01T12:25:43.291Z,1016.38
2017-10-01T12:26:53.225Z,1016.36
2017-10-01T12:28:03.163Z,1016.33
2017-10-01T12:29:13.416Z,1016.37
2017-10-01T12:30:23.685Z,1016.38
2017-10-01T12:31:33.929Z,1016.38
2017-10-01T12:32:44.198Z,1016.43
2017-10-01T12:33:53.817Z,1016.43
2017-10-01T12:35:04.074Z,1016.44
2017-10-01T12:36:14.014Z,1016.46
2017-10-01T12:37:23.950Z,1016.43
2017-10-01T12:38:33.903Z,1016.5
2017-10-01T12:39:43.526Z,1016.55
2017-10-01T12:40:53.155Z,1016.54
2017-10-01T12:42:02.788Z,1016.53
2017-10-01T12:43:13.045Z,1016.56
2017-10-01T12:44:22.989Z,1016.55
2017-10-01T12:45:32.932Z,1016.54
2017-10-01T12:46:43.193Z,1016.55
2017-10-01T12:47:53.445Z,1016.6
2017-10-01T12:49:03.697Z,1016.53
2017-10-01T12:50:13.628Z,1016.59
2017-10-01T12:51:23.883Z,1016.63
2017-10-01T12:52:33.833Z,1016.63
2017-10-01T12:53:44.085Z,1016.69
2017-10-01T12:54:54.040Z,1016.65
2017-10-01T12:56:04.294Z,1016.7
2017-10-01T12:57:14.235Z,1016.68
2017-10-01T12:58:24.486Z,1016.68
2017-10-01T12:59:34.425Z,1016.69
2017-10-01T13:00:44.675Z,1016.65
2017-10-01T13:01:54.962Z,1016.67
2017-10-01T13:03:05.244Z,1016.68
2017-10-01T13:04:15.512Z,1016.7
2017-10-01T13:05:25.787Z,1016.69
2017-10-01T13:06:35.734Z,1016.69
2017-10-01T13:07:45.987Z,1016.69
2017-10-01T13:08:56.255Z,1016.67
2017-10-01T13:10:06.192Z,1016.73
2017-10-01T13:11:16.150Z,1016.73
2017-10-01T13:12:26.825Z,1016.71
2017-10-01T13:13:37.101Z,1016.76
2017-10-01T13:14:46.726Z,1016.71
2017-10-01T13:15:56.976Z,1016.71
2017-10-01T13:17:06.919Z,1016.65
2017-10-01T13:18:16.856Z,1016.63
2017-10-01T13:19:27.110Z,1016.65
2017-10-01T13:20:37.360Z,1016.65
2017-10-01T13:21:47.317Z,1016.68
2017-10-01T13:22:57.567Z,1016.65
2017-10-01T13:24:07.206Z,1016.65
2017-10-01T13:25:17.467Z,1016.7
2017-10-01T13:26:27.100Z,1016.63
2017-10-01T13:27:37.353Z,1016.69
2017-10-01T13:28:47.617Z,1016.72
2017-10-01T13:29:57.881Z,1016.78
2017-10-01T13:31:07.847Z,1016.76
2017-10-01T13:32:17.788Z,1016.78
2017-10-01T13:33:28.059Z,1016.82
2017-10-01T13:34:38.306Z,1016.8
2017-10-01T13:35:48.555Z,1016.81
2017-10-01T13:36:58.806Z,1016.86
2017-10-01T13:38:08.752Z,1016.82
2017-10-01T13:39:18.708Z,1016.81
2017-10-01T13:40:28.692Z,1016.83
2017-10-01T13:41:38.951Z,1016.87
2017-10-01T13:42:48.576Z,1016.83
2017-10-01T13:43:59.058Z,1016.82
2017-10-01T13:45:09.333Z,1016.79
2017-10-01T13:46:19.582Z,1016.8
2017-10-01T13:47:29.851Z,1016.76
2017-10-01T13:48:40.114Z,1016.79
2017-10-01T13:49:50.379Z,1016.77
2017-10-01T13:51:00.324Z,1016.75
2017-10-01T13:52:10.592Z,1016.75
2017-10-01T13:53:20.846Z,1016.76
2017-10-01T13:54:30.779Z,1016.72
2017-10-01T13:55:40.717Z,1016.73
2017-10-01T13:56:50.980Z,1016.75
2017-10-01T13:58:00.608Z,1016.77
2017-10-01T13:59:10.556Z,1016.77
2017-10-01T14:00:20.492Z,1016.79
2017-10-01T14:01:30.762Z,1016.79
2017-10-01T14:02:41.028Z,1016.8
2017-10-01T14:03:50.956Z,1016.8
2017-10-01T14:05:00.906Z,1016.81
2017-10-01T14:06:10.852Z,1016.81
2017-10-01T14:07:20.467Z,1016.76
2017-10-01T14:08:30.726Z,1016.74
2017-10-01T14:09:40.974Z,1016.76